sensor_id;sensor_type;location;lat;lon;timestamp;P1;durP1;ratioP1;P2;durP2;ratioP2
43014;SDS011;28637;50.554;7.032;2022-11-14T00:02:16;5.70;;;3.30;;
43014;SDS011;28637;50.554;7.032;2022-11-14T00:07:17;6.00;;;3.10;;
43014;SDS011;28637;50.554;7.032;2022-11-14T00:12:18;5.72;;;3.30;;
43014;SDS011;28637;50.554;7.032;2022-11-14T00:17:18;6.38;;;3.28;;
43014;SDS011;28637;50.554;7.032;2022-11-14T00:22:19;6.43;;;3.30;;
43014;SDS011;28637;50.554;7.032;2022-11-14T00:27:20;5.57;;;3.00;;
43014;SDS011;28637;50.554;7.032;2022-11-14T00:32:21;6.88;;;3.50;;
43014;SDS011;28637;50.554;7.032;2022-11-14T00:37:21;5.85;;;3.25;;
43014;SDS011;28637;50.554;7.032;2022-11-14T00:42:22;9.18;;;3.88;;
43014;SDS011;28637;50.554;7.032;2022-11-14T00:47:23;9.10;;;4.07;;
43014;SDS011;28637;50.554;7.032;2022-11-14T00:52:23;7.78;;;3.92;;
43014;SDS011;28637;50.554;7.032;2022-11-14T00:57:24;7.60;;;3.55;;
43014;SDS011;28637;50.554;7.032;2022-11-14T01:02:25;7.22;;;3.88;;
43014;SDS011;28637;50.554;7.032;2022-11-14T01:07:25;6.47;;;3.58;;
43014;SDS011;28637;50.554;7.032;2022-11-14T01:12:26;6.93;;;3.38;;
43014;SDS011;28637;50.554;7.032;2022-11-14T01:17:27;6.70;;;3.72;;
43014;SDS011;28637;50.554;7.032;2022-11-14T01:22:28;7.53;;;3.75;;
43014;SDS011;28637;50.554;7.032;2022-11-14T01:27:30;6.80;;;3.45;;
43014;SDS011;28637;50.554;7.032;2022-11-14T01:32:30;6.43;;;3.40;;
43014;SDS011;28637;50.554;7.032;2022-11-14T01:37:31;6.03;;;3.30;;
43014;SDS011;28637;50.554;7.032;2022-11-14T01:42:32;5.80;;;3.20;;
43014;SDS011;28637;50.554;7.032;2022-11-14T01:47:33;5.73;;;3.00;;
43014;SDS011;28637;50.554;7.032;2022-11-14T01:52:36;4.55;;;2.90;;
43014;SDS011;28637;50.554;7.032;2022-11-14T01:57:41;5.50;;;3.05;;
43014;SDS011;28637;50.554;7.032;2022-11-14T02:02:45;6.32;;;3.20;;
43014;SDS011;28637;50.554;7.032;2022-11-14T02:07:47;7.22;;;3.22;;
43014;SDS011;28637;50.554;7.032;2022-11-14T02:12:48;5.05;;;3.00;;
43014;SDS011;28637;50.554;7.032;2022-11-14T02:17:49;4.63;;;2.90;;
43014;SDS011;28637;50.554;7.032;2022-11-14T02:22:50;5.33;;;3.00;;
43014;SDS011;28637;50.554;7.032;2022-11-14T02:27:51;6.80;;;3.10;;
43014;SDS011;28637;50.554;7.032;2022-11-14T02:32:52;6.23;;;3.17;;
43014;SDS011;28637;50.554;7.032;2022-11-14T02:37:52;7.07;;;3.50;;
43014;SDS011;28637;50.554;7.032;2022-11-14T02:42:53;7.85;;;3.40;;
43014;SDS011;28637;50.554;7.032;2022-11-14T02:47:54;5.72;;;2.97;;
43014;SDS011;28637;50.554;7.032;2022-11-14T02:52:55;5.30;;;3.00;;
43014;SDS011;28637;50.554;7.032;2022-11-14T02:57:55;8.23;;;3.17;;
43014;SDS011;28637;50.554;7.032;2022-11-14T03:02:56;5.25;;;2.97;;
43014;SDS011;28637;50.554;7.032;2022-11-14T03:07:57;7.63;;;3.17;;
43014;SDS011;28637;50.554;7.032;2022-11-14T03:12:57;8.60;;;3.80;;
43014;SDS011;28637;50.554;7.032;2022-11-14T03:17:58;8.77;;;3.88;;
43014;SDS011;28637;50.554;7.032;2022-11-14T03:22:58;7.03;;;3.75;;
43014;SDS011;28637;50.554;7.032;2022-11-14T03:27:59;6.35;;;3.63;;
43014;SDS011;28637;50.554;7.032;2022-11-14T03:33:00;6.72;;;3.13;;
43014;SDS011;28637;50.554;7.032;2022-11-14T03:38:00;7.27;;;3.57;;
43014;SDS011;28637;50.554;7.032;2022-11-14T03:43:01;6.55;;;3.40;;
43014;SDS011;28637;50.554;7.032;2022-11-14T03:48:02;7.57;;;3.53;;
43014;SDS011;28637;50.554;7.032;2022-11-14T03:53:04;6.35;;;3.30;;
43014;SDS011;28637;50.554;7.032;2022-11-14T03:58:05;11.75;;;4.35;;
43014;SDS011;28637;50.554;7.032;2022-11-14T04:03:05;12.83;;;4.83;;
43014;SDS011;28637;50.554;7.032;2022-11-14T04:08:06;9.80;;;4.10;;
43014;SDS011;28637;50.554;7.032;2022-11-14T04:13:07;8.80;;;4.53;;
43014;SDS011;28637;50.554;7.032;2022-11-14T04:18:08;10.10;;;4.35;;
43014;SDS011;28637;50.554;7.032;2022-11-14T04:23:09;9.43;;;3.72;;
43014;SDS011;28637;50.554;7.032;2022-11-14T04:28:09;9.40;;;4.53;;
43014;SDS011;28637;50.554;7.032;2022-11-14T04:33:11;7.00;;;3.75;;
43014;SDS011;28637;50.554;7.032;2022-11-14T04:38:12;9.25;;;4.22;;
43014;SDS011;28637;50.554;7.032;2022-11-14T04:43:12;9.93;;;4.90;;
43014;SDS011;28637;50.554;7.032;2022-11-14T04:48:13;15.27;;;5.03;;
43014;SDS011;28637;50.554;7.032;2022-11-14T04:53:14;13.60;;;5.30;;
43014;SDS011;28637;50.554;7.032;2022-11-14T04:58:14;11.65;;;5.53;;
43014;SDS011;28637;50.554;7.032;2022-11-14T05:03:15;14.15;;;5.30;;
43014;SDS011;28637;50.554;7.032;2022-11-14T05:08:16;12.00;;;5.10;;
43014;SDS011;28637;50.554;7.032;2022-11-14T05:13:16;11.57;;;4.88;;
43014;SDS011;28637;50.554;7.032;2022-11-14T05:18:17;9.40;;;4.40;;
43014;SDS011;28637;50.554;7.032;2022-11-14T05:23:18;7.13;;;4.00;;
43014;SDS011;28637;50.554;7.032;2022-11-14T05:28:21;7.00;;;3.45;;
43014;SDS011;28637;50.554;7.032;2022-11-14T05:33:21;7.47;;;3.97;;
43014;SDS011;28637;50.554;7.032;2022-11-14T05:38:22;8.68;;;3.53;;
43014;SDS011;28637;50.554;7.032;2022-11-14T05:43:23;7.35;;;3.85;;
43014;SDS011;28637;50.554;7.032;2022-11-14T05:48:24;9.98;;;4.40;;
43014;SDS011;28637;50.554;7.032;2022-11-14T05:53:25;10.20;;;6.00;;
43014;SDS011;28637;50.554;7.032;2022-11-14T05:58:27;11.73;;;6.75;;
43014;SDS011;28637;50.554;7.032;2022-11-14T06:03:35;14.05;;;6.50;;
43014;SDS011;28637;50.554;7.032;2022-11-14T06:08:38;15.13;;;7.75;;
43014;SDS011;28637;50.554;7.032;2022-11-14T06:13:39;19.92;;;10.25;;
43014;SDS011;28637;50.554;7.032;2022-11-14T06:18:40;20.80;;;10.48;;
43014;SDS011;28637;50.554;7.032;2022-11-14T06:23:41;22.05;;;11.15;;
43014;SDS011;28637;50.554;7.032;2022-11-14T06:28:42;25.80;;;11.75;;
43014;SDS011;28637;50.554;7.032;2022-11-14T06:33:43;22.95;;;11.23;;
43014;SDS011;28637;50.554;7.032;2022-11-14T06:38:44;21.37;;;10.87;;
43014;SDS011;28637;50.554;7.032;2022-11-14T06:43:47;22.63;;;10.80;;
43014;SDS011;28637;50.554;7.032;2022-11-14T06:48:50;20.52;;;10.07;;
43014;SDS011;28637;50.554;7.032;2022-11-14T06:53:51;23.35;;;11.93;;
43014;SDS011;28637;50.554;7.032;2022-11-14T06:58:52;22.92;;;10.90;;
43014;SDS011;28637;50.554;7.032;2022-11-14T07:03:53;21.88;;;10.45;;
43014;SDS011;28637;50.554;7.032;2022-11-14T07:08:54;23.73;;;11.47;;
43014;SDS011;28637;50.554;7.032;2022-11-14T07:14:00;22.50;;;10.85;;
43014;SDS011;28637;50.554;7.032;2022-11-14T07:19:05;19.17;;;9.93;;
43014;SDS011;28637;50.554;7.032;2022-11-14T07:24:08;20.83;;;10.48;;
43014;SDS011;28637;50.554;7.032;2022-11-14T07:29:09;22.02;;;10.75;;
43014;SDS011;28637;50.554;7.032;2022-11-14T07:34:10;18.55;;;10.00;;
43014;SDS011;28637;50.554;7.032;2022-11-14T07:39:10;19.15;;;9.73;;
43014;SDS011;28637;50.554;7.032;2022-11-14T07:44:11;20.45;;;10.23;;
43014;SDS011;28637;50.554;7.032;2022-11-14T07:49:11;20.20;;;9.98;;
43014;SDS011;28637;50.554;7.032;2022-11-14T07:54:12;19.83;;;9.70;;
43014;SDS011;28637;50.554;7.032;2022-11-14T07:59:13;19.50;;;9.60;;
43014;SDS011;28637;50.554;7.032;2022-11-14T08:04:14;19.05;;;8.85;;
43014;SDS011;28637;50.554;7.032;2022-11-14T08:09:14;18.90;;;8.57;;
43014;SDS011;28637;50.554;7.032;2022-11-14T08:14:15;17.58;;;8.45;;
43014;SDS011;28637;50.554;7.032;2022-11-14T08:19:16;23.42;;;9.02;;
43014;SDS011;28637;50.554;7.032;2022-11-14T08:24:18;17.90;;;8.23;;
43014;SDS011;28637;50.554;7.032;2022-11-14T08:29:20;16.25;;;7.63;;
43014;SDS011;28637;50.554;7.032;2022-11-14T08:34:20;18.48;;;9.52;;
43014;SDS011;28637;50.554;7.032;2022-11-14T08:39:22;15.52;;;8.40;;
43014;SDS011;28637;50.554;7.032;2022-11-14T08:44:25;14.20;;;7.15;;
43014;SDS011;28637;50.554;7.032;2022-11-14T08:49:25;16.83;;;7.95;;
43014;SDS011;28637;50.554;7.032;2022-11-14T08:54:26;14.55;;;8.38;;
43014;SDS011;28637;50.554;7.032;2022-11-14T08:59:27;15.45;;;8.48;;
43014;SDS011;28637;50.554;7.032;2022-11-14T09:04:28;15.65;;;7.35;;
43014;SDS011;28637;50.554;7.032;2022-11-14T09:09:29;13.88;;;7.65;;
43014;SDS011;28637;50.554;7.032;2022-11-14T09:14:29;17.75;;;7.55;;
43014;SDS011;28637;50.554;7.032;2022-11-14T09:19:30;13.95;;;7.45;;
43014;SDS011;28637;50.554;7.032;2022-11-14T09:24:31;16.83;;;8.05;;
43014;SDS011;28637;50.554;7.032;2022-11-14T09:29:32;14.35;;;7.18;;
43014;SDS011;28637;50.554;7.032;2022-11-14T09:34:32;14.20;;;7.40;;
43014;SDS011;28637;50.554;7.032;2022-11-14T09:39:33;10.70;;;6.05;;
43014;SDS011;28637;50.554;7.032;2022-11-14T09:44:43;11.45;;;6.18;;
43014;SDS011;28637;50.554;7.032;2022-11-14T09:49:58;11.50;;;5.82;;
43014;SDS011;28637;50.554;7.032;2022-11-14T10:05:23;11.82;;;5.72;;
43014;SDS011;28637;50.554;7.032;2022-11-14T10:21:08;21.48;;;11.07;;
43014;SDS011;28637;50.554;7.032;2022-11-14T10:26:27;12.20;;;6.60;;
43014;SDS011;28637;50.554;7.032;2022-11-14T10:42:18;12.07;;;6.72;;
43014;SDS011;28637;50.554;7.032;2022-11-14T10:47:38;12.68;;;6.53;;
43014;SDS011;28637;50.554;7.032;2022-11-14T10:52:42;13.85;;;7.97;;
43014;SDS011;28637;50.554;7.032;2022-11-14T10:57:44;12.10;;;7.05;;
43014;SDS011;28637;50.554;7.032;2022-11-14T11:02:46;12.15;;;6.75;;
43014;SDS011;28637;50.554;7.032;2022-11-14T11:07:47;14.35;;;7.18;;
43014;SDS011;28637;50.554;7.032;2022-11-14T11:13:10;13.90;;;6.82;;
43014;SDS011;28637;50.554;7.032;2022-11-14T11:18:27;14.38;;;7.57;;
43014;SDS011;28637;50.554;7.032;2022-11-14T11:23:30;16.67;;;7.97;;
43014;SDS011;28637;50.554;7.032;2022-11-14T11:28:31;17.48;;;8.23;;
43014;SDS011;28637;50.554;7.032;2022-11-14T11:33:37;16.90;;;8.38;;
43014;SDS011;28637;50.554;7.032;2022-11-14T11:38:41;16.35;;;8.57;;
43014;SDS011;28637;50.554;7.032;2022-11-14T11:43:50;16.85;;;8.25;;
43014;SDS011;28637;50.554;7.032;2022-11-14T11:48:59;16.65;;;8.60;;
43014;SDS011;28637;50.554;7.032;2022-11-14T12:04:39;18.50;;;9.20;;
43014;SDS011;28637;50.554;7.032;2022-11-14T12:09:40;18.25;;;9.07;;
43014;SDS011;28637;50.554;7.032;2022-11-14T12:19:50;16.80;;;8.48;;
43014;SDS011;28637;50.554;7.032;2022-11-14T12:30:33;18.85;;;9.10;;
43014;SDS011;28637;50.554;7.032;2022-11-14T12:35:39;24.02;;;13.32;;
43014;SDS011;28637;50.554;7.032;2022-11-14T12:40:55;20.65;;;10.88;;
43014;SDS011;28637;50.554;7.032;2022-11-14T12:45:59;18.25;;;9.57;;
43014;SDS011;28637;50.554;7.032;2022-11-14T12:51:02;17.48;;;9.05;;
43014;SDS011;28637;50.554;7.032;2022-11-14T13:11:43;14.73;;;8.68;;
43014;SDS011;28637;50.554;7.032;2022-11-14T13:22:37;17.75;;;7.65;;
43014;SDS011;28637;50.554;7.032;2022-11-14T13:27:38;12.27;;;7.25;;
43014;SDS011;28637;50.554;7.032;2022-11-14T13:53:31;14.70;;;8.35;;
43014;SDS011;28637;50.554;7.032;2022-11-14T14:03:43;15.82;;;8.75;;
43014;SDS011;28637;50.554;7.032;2022-11-14T14:19:41;16.65;;;9.18;;
43014;SDS011;28637;50.554;7.032;2022-11-14T14:35:25;21.45;;;10.43;;
43014;SDS011;28637;50.554;7.032;2022-11-14T14:40:33;25.83;;;14.60;;
43014;SDS011;28637;50.554;7.032;2022-11-14T14:45:46;28.17;;;17.52;;
43014;SDS011;28637;50.554;7.032;2022-11-14T14:50:51;19.90;;;10.65;;
43014;SDS011;28637;50.554;7.032;2022-11-14T15:00:56;19.13;;;10.55;;
43014;SDS011;28637;50.554;7.032;2022-11-14T15:06:06;19.42;;;11.02;;
43014;SDS011;28637;50.554;7.032;2022-11-14T15:11:20;19.77;;;10.68;;
43014;SDS011;28637;50.554;7.032;2022-11-14T15:16:21;17.95;;;10.05;;
43014;SDS011;28637;50.554;7.032;2022-11-14T15:26:37;19.60;;;11.65;;
43014;SDS011;28637;50.554;7.032;2022-11-14T15:31:42;24.67;;;11.85;;
43014;SDS011;28637;50.554;7.032;2022-11-14T15:37:06;18.00;;;11.18;;
43014;SDS011;28637;50.554;7.032;2022-11-14T15:42:45;19.30;;;11.35;;
43014;SDS011;28637;50.554;7.032;2022-11-14T15:47:39;18.80;;;10.50;;
43014;SDS011;28637;50.554;7.032;2022-11-14T15:52:49;19.70;;;11.05;;
43014;SDS011;28637;50.554;7.032;2022-11-14T15:58:01;18.00;;;10.50;;
43014;SDS011;28637;50.554;7.032;2022-11-14T16:03:02;16.23;;;10.25;;
43014;SDS011;28637;50.554;7.032;2022-11-14T16:08:09;18.35;;;11.10;;
43014;SDS011;28637;50.554;7.032;2022-11-14T16:13:10;17.88;;;9.68;;
43014;SDS011;28637;50.554;7.032;2022-11-14T16:18:11;22.53;;;10.33;;
43014;SDS011;28637;50.554;7.032;2022-11-14T16:23:12;13.80;;;8.90;;
43014;SDS011;28637;50.554;7.032;2022-11-14T16:28:12;10.30;;;6.32;;
43014;SDS011;28637;50.554;7.032;2022-11-14T16:33:13;8.13;;;5.40;;
43014;SDS011;28637;50.554;7.032;2022-11-14T16:38:14;10.52;;;6.18;;
43014;SDS011;28637;50.554;7.032;2022-11-14T16:43:14;10.75;;;5.75;;
43014;SDS011;28637;50.554;7.032;2022-11-14T16:48:15;9.23;;;5.65;;
43014;SDS011;28637;50.554;7.032;2022-11-14T16:53:16;11.33;;;5.73;;
43014;SDS011;28637;50.554;7.032;2022-11-14T16:58:16;9.60;;;5.78;;
43014;SDS011;28637;50.554;7.032;2022-11-14T17:03:17;10.25;;;6.40;;
43014;SDS011;28637;50.554;7.032;2022-11-14T17:08:18;9.20;;;5.80;;
43014;SDS011;28637;50.554;7.032;2022-11-14T17:13:18;10.57;;;6.30;;
43014;SDS011;28637;50.554;7.032;2022-11-14T17:18:21;8.85;;;5.57;;
43014;SDS011;28637;50.554;7.032;2022-11-14T17:23:22;8.98;;;5.78;;
43014;SDS011;28637;50.554;7.032;2022-11-14T17:28:22;11.85;;;6.65;;
43014;SDS011;28637;50.554;7.032;2022-11-14T17:33:23;10.88;;;5.90;;
43014;SDS011;28637;50.554;7.032;2022-11-14T17:38:23;11.38;;;6.07;;
43014;SDS011;28637;50.554;7.032;2022-11-14T17:43:24;11.33;;;6.10;;
43014;SDS011;28637;50.554;7.032;2022-11-14T17:48:25;14.02;;;7.00;;
43014;SDS011;28637;50.554;7.032;2022-11-14T17:53:26;10.93;;;6.77;;
43014;SDS011;28637;50.554;7.032;2022-11-14T17:58:27;11.98;;;6.90;;
43014;SDS011;28637;50.554;7.032;2022-11-14T18:08:30;11.07;;;6.23;;
43014;SDS011;28637;50.554;7.032;2022-11-14T18:13:31;11.97;;;6.53;;
43014;SDS011;28637;50.554;7.032;2022-11-14T18:18:32;12.45;;;6.68;;
43014;SDS011;28637;50.554;7.032;2022-11-14T18:23:34;11.70;;;6.43;;
43014;SDS011;28637;50.554;7.032;2022-11-14T18:28:37;11.73;;;6.22;;
43014;SDS011;28637;50.554;7.032;2022-11-14T18:33:38;11.30;;;6.43;;
43014;SDS011;28637;50.554;7.032;2022-11-14T18:43:40;12.38;;;5.90;;
43014;SDS011;28637;50.554;7.032;2022-11-14T18:48:44;10.73;;;6.20;;
43014;SDS011;28637;50.554;7.032;2022-11-14T18:53:46;10.38;;;6.20;;
43014;SDS011;28637;50.554;7.032;2022-11-14T18:58:50;10.90;;;6.57;;
43014;SDS011;28637;50.554;7.032;2022-11-14T19:03:54;11.88;;;6.72;;
43014;SDS011;28637;50.554;7.032;2022-11-14T19:09:00;12.18;;;6.68;;
43014;SDS011;28637;50.554;7.032;2022-11-14T19:14:09;12.70;;;7.07;;
43014;SDS011;28637;50.554;7.032;2022-11-14T19:19:09;12.85;;;7.07;;
43014;SDS011;28637;50.554;7.032;2022-11-14T19:24:11;14.88;;;7.38;;
43014;SDS011;28637;50.554;7.032;2022-11-14T19:29:11;13.70;;;7.72;;
43014;SDS011;28637;50.554;7.032;2022-11-14T19:34:13;16.95;;;7.65;;
43014;SDS011;28637;50.554;7.032;2022-11-14T19:39:14;15.05;;;7.47;;
43014;SDS011;28637;50.554;7.032;2022-11-14T19:44:15;12.68;;;7.70;;
43014;SDS011;28637;50.554;7.032;2022-11-14T19:49:15;13.13;;;7.35;;
43014;SDS011;28637;50.554;7.032;2022-11-14T19:54:16;16.80;;;7.97;;
43014;SDS011;28637;50.554;7.032;2022-11-14T19:59:17;13.13;;;6.80;;
43014;SDS011;28637;50.554;7.032;2022-11-14T20:04:18;12.10;;;6.93;;
43014;SDS011;28637;50.554;7.032;2022-11-14T20:09:18;11.30;;;6.55;;
43014;SDS011;28637;50.554;7.032;2022-11-14T20:14:19;11.60;;;6.63;;
43014;SDS011;28637;50.554;7.032;2022-11-14T20:19:20;13.55;;;6.68;;
43014;SDS011;28637;50.554;7.032;2022-11-14T20:24:20;9.77;;;6.23;;
43014;SDS011;28637;50.554;7.032;2022-11-14T20:29:23;8.70;;;5.88;;
43014;SDS011;28637;50.554;7.032;2022-11-14T20:34:24;8.73;;;6.03;;
43014;SDS011;28637;50.554;7.032;2022-11-14T20:39:24;11.20;;;6.70;;
43014;SDS011;28637;50.554;7.032;2022-11-14T20:44:25;9.27;;;6.10;;
43014;SDS011;28637;50.554;7.032;2022-11-14T20:49:26;12.27;;;6.25;;
43014;SDS011;28637;50.554;7.032;2022-11-14T20:54:27;9.00;;;5.73;;
43014;SDS011;28637;50.554;7.032;2022-11-14T20:59:27;10.47;;;5.23;;
43014;SDS011;28637;50.554;7.032;2022-11-14T21:04:28;9.77;;;5.15;;
43014;SDS011;28637;50.554;7.032;2022-11-14T21:09:29;7.57;;;4.63;;
43014;SDS011;28637;50.554;7.032;2022-11-14T21:14:30;8.87;;;5.17;;
43014;SDS011;28637;50.554;7.032;2022-11-14T21:19:30;7.13;;;4.70;;
43014;SDS011;28637;50.554;7.032;2022-11-14T21:24:31;10.47;;;5.30;;
43014;SDS011;28637;50.554;7.032;2022-11-14T21:29:32;6.45;;;4.47;;
43014;SDS011;28637;50.554;7.032;2022-11-14T21:34:32;7.95;;;4.97;;
43014;SDS011;28637;50.554;7.032;2022-11-14T21:39:33;6.73;;;4.50;;
43014;SDS011;28637;50.554;7.032;2022-11-14T21:44:33;5.23;;;4.23;;
43014;SDS011;28637;50.554;7.032;2022-11-14T21:49:34;7.57;;;4.82;;
43014;SDS011;28637;50.554;7.032;2022-11-14T21:54:35;7.65;;;4.93;;
43014;SDS011;28637;50.554;7.032;2022-11-14T21:59:36;8.27;;;4.80;;
43014;SDS011;28637;50.554;7.032;2022-11-14T22:04:37;8.98;;;4.53;;
43014;SDS011;28637;50.554;7.032;2022-11-14T22:09:37;9.17;;;5.00;;
43014;SDS011;28637;50.554;7.032;2022-11-14T22:14:38;10.73;;;5.53;;
43014;SDS011;28637;50.554;7.032;2022-11-14T22:19:39;8.53;;;5.67;;
43014;SDS011;28637;50.554;7.032;2022-11-14T22:24:40;8.68;;;5.97;;
43014;SDS011;28637;50.554;7.032;2022-11-14T22:29:41;11.07;;;6.27;;
43014;SDS011;28637;50.554;7.032;2022-11-14T22:34:41;14.73;;;5.90;;
43014;SDS011;28637;50.554;7.032;2022-11-14T22:39:42;10.67;;;5.83;;
43014;SDS011;28637;50.554;7.032;2022-11-14T22:44:42;9.27;;;6.37;;
43014;SDS011;28637;50.554;7.032;2022-11-14T22:49:43;11.03;;;6.50;;
43014;SDS011;28637;50.554;7.032;2022-11-14T22:54:44;8.80;;;6.30;;
43014;SDS011;28637;50.554;7.032;2022-11-14T22:59:44;9.70;;;6.60;;
43014;SDS011;28637;50.554;7.032;2022-11-14T23:04:45;10.33;;;5.90;;
43014;SDS011;28637;50.554;7.032;2022-11-14T23:09:46;9.33;;;6.23;;
43014;SDS011;28637;50.554;7.032;2022-11-14T23:14:47;9.13;;;5.73;;
43014;SDS011;28637;50.554;7.032;2022-11-14T23:19:47;9.20;;;5.93;;
43014;SDS011;28637;50.554;7.032;2022-11-14T23:24:48;10.52;;;6.22;;
43014;SDS011;28637;50.554;7.032;2022-11-14T23:29:49;8.57;;;5.77;;
43014;SDS011;28637;50.554;7.032;2022-11-14T23:34:50;8.63;;;5.67;;
43014;SDS011;28637;50.554;7.032;2022-11-14T23:39:50;10.67;;;6.33;;
43014;SDS011;28637;50.554;7.032;2022-11-14T23:44:51;10.27;;;5.83;;
43014;SDS011;28637;50.554;7.032;2022-11-14T23:49:52;9.73;;;5.67;;
43014;SDS011;28637;50.554;7.032;2022-11-14T23:54:52;9.60;;;5.57;;
43014;SDS011;28637;50.554;7.032;2022-11-14T23:59:53;10.80;;;5.10;;
